createdAt,value
2019-02-10T00:03:37.628Z,3.07
2019-02-10T00:06:25.004Z,3.50
2019-02-10T00:09:12.506Z,3.13
2019-02-10T00:11:59.066Z,3.43
2019-02-10T00:14:45.581Z,3.13
2019-02-10T00:17:32.201Z,3.40
2019-02-10T00:20:18.653Z,3.10
2019-02-10T00:23:05.289Z,3.10
2019-02-10T00:25:45.089Z,3.20
2019-02-10T00:28:24.908Z,3.20
2019-02-10T00:31:04.345Z,3.00
2019-02-10T00:33:44.473Z,3.07
2019-02-10T00:36:23.782Z,3.07
2019-02-10T00:39:05.839Z,2.57
2019-02-10T00:41:46.067Z,2.97
2019-02-10T00:44:25.277Z,2.70
2019-02-10T00:47:05.418Z,2.77
2019-02-10T00:49:45.586Z,2.40
2019-02-10T00:52:25.602Z,2.53
2019-02-10T00:55:05.359Z,2.67
2019-02-10T00:57:45.474Z,2.90
2019-02-10T01:00:25.121Z,2.70
2019-02-10T01:03:04.801Z,2.60
2019-02-10T01:05:44.835Z,2.60
2019-02-10T01:08:24.098Z,2.97
2019-02-10T01:11:03.585Z,2.80
2019-02-10T01:13:43.776Z,2.97
2019-02-10T01:16:23.746Z,2.73
2019-02-10T01:19:03.618Z,2.70
2019-02-10T01:21:43.709Z,2.50
2019-02-10T01:24:23.735Z,2.70
2019-02-10T01:27:04.214Z,2.30
2019-02-10T01:29:44.045Z,2.40
2019-02-10T01:32:23.689Z,2.50
2019-02-10T01:35:03.247Z,2.30
2019-02-10T01:37:43.161Z,2.50
2019-02-10T01:40:23.321Z,2.83
2019-02-10T01:43:03.590Z,2.30
2019-02-10T01:45:43.882Z,2.50
2019-02-10T01:48:23.730Z,2.20
2019-02-10T01:51:03.886Z,2.23
2019-02-10T01:53:43.734Z,2.50
2019-02-10T01:56:24.186Z,2.40
2019-02-10T02:02:15.861Z,2.57
2019-02-10T02:04:55.762Z,2.37
2019-02-10T02:07:35.888Z,2.37
2019-02-10T02:10:16.007Z,2.40
2019-02-10T02:12:55.962Z,2.30
2019-02-10T02:15:36.082Z,2.30
2019-02-10T02:18:16.130Z,2.23
2019-02-10T02:20:56.325Z,2.73
2019-02-10T02:23:36.821Z,2.03
2019-02-10T02:26:16.587Z,2.30
2019-02-10T02:28:56.603Z,2.70
2019-02-10T02:31:36.575Z,2.33
2019-02-10T02:34:16.691Z,2.37
2019-02-10T02:36:55.873Z,2.47
2019-02-10T02:39:35.155Z,2.50
2019-02-10T02:42:15.302Z,2.10
2019-02-10T02:44:55.438Z,2.37
2019-02-10T02:47:35.566Z,2.37
2019-02-10T02:53:16.429Z,2.13
2019-02-10T02:56:03.045Z,2.40
2019-02-10T02:58:49.882Z,2.37
2019-02-10T03:01:16.634Z,2.40
2019-02-10T03:04:03.466Z,2.27
2019-02-10T03:06:49.902Z,2.27
2019-02-10T03:09:36.418Z,2.60
2019-02-10T03:12:22.958Z,2.13
2019-02-10T03:15:09.598Z,2.20
2019-02-10T03:17:56.062Z,2.40
2019-02-10T03:20:42.923Z,2.10
2019-02-10T03:23:29.665Z,2.40
2019-02-10T03:29:08.041Z,2.50
2019-02-10T03:31:47.808Z,2.20
2019-02-10T03:34:27.959Z,2.47
2019-02-10T03:37:07.231Z,2.27
2019-02-10T03:42:59.550Z,2.20
2019-02-10T03:45:39.515Z,2.00
2019-02-10T03:54:16.242Z,2.37
2019-02-10T03:56:56.031Z,2.13
2019-02-10T03:59:36.142Z,2.40
2019-02-10T04:02:15.280Z,1.83
2019-02-10T04:04:55.407Z,2.00
2019-02-10T04:07:36.470Z,2.20
2019-02-10T04:13:28.582Z,2.00
2019-02-10T04:16:08.650Z,2.00
2019-02-10T04:18:48.682Z,2.40
2019-02-10T04:24:40.948Z,1.90
2019-02-10T04:27:20.522Z,2.13
2019-02-10T04:30:00.668Z,2.00
2019-02-10T04:32:40.394Z,2.10
2019-02-10T04:35:20.559Z,1.87
2019-02-10T04:38:00.491Z,2.00
2019-02-10T04:40:39.742Z,1.90
2019-02-10T04:43:19.948Z,1.80
2019-02-10T04:46:00.448Z,2.10
2019-02-10T04:48:40.086Z,2.00
2019-02-10T04:51:19.527Z,2.23
2019-02-10T04:53:59.244Z,1.87
2019-02-10T04:56:39.428Z,2.00
2019-02-10T04:59:19.609Z,2.20
2019-02-10T05:01:59.751Z,2.00
2019-02-10T05:04:40.033Z,2.00
2019-02-10T05:07:19.910Z,1.80
2019-02-10T05:09:59.926Z,2.00
2019-02-10T05:12:39.187Z,2.00
2019-02-10T05:15:19.147Z,1.90
2019-02-10T05:17:59.295Z,1.90
2019-02-10T05:20:39.306Z,1.87
2019-02-10T05:23:19.222Z,2.17
2019-02-10T05:25:59.111Z,2.10
2019-02-10T05:28:39.254Z,1.93
2019-02-10T05:31:19.362Z,2.03
2019-02-10T05:33:59.415Z,1.90
2019-02-10T05:36:39.588Z,2.00
2019-02-10T05:39:19.654Z,1.87
2019-02-10T05:42:00.067Z,1.70
2019-02-10T05:44:39.975Z,2.50
2019-02-10T05:47:19.850Z,1.93
2019-02-10T05:49:59.811Z,2.30
2019-02-10T05:52:39.853Z,2.30
2019-02-10T05:55:19.902Z,2.20
2019-02-10T05:57:59.949Z,2.10
2019-02-10T06:00:40.131Z,2.30
2019-02-10T06:03:20.142Z,2.30
2019-02-10T06:06:00.294Z,1.90
2019-02-10T06:08:40.183Z,2.03
2019-02-10T06:11:20.206Z,1.97
2019-02-10T06:13:59.519Z,1.83
2019-02-10T06:16:39.870Z,2.03
2019-02-10T06:19:19.781Z,1.90
2019-02-10T06:21:59.788Z,1.77
2019-02-10T06:24:39.892Z,1.73
2019-02-10T06:27:19.762Z,2.10
2019-02-10T06:29:59.027Z,1.80
2019-02-10T06:32:38.917Z,1.70
2019-02-10T06:35:18.854Z,2.17
2019-02-10T06:37:58.938Z,1.90
2019-02-10T06:40:38.843Z,1.83
2019-02-10T06:43:18.840Z,1.80
2019-02-10T06:45:58.826Z,1.70
2019-02-10T06:48:38.791Z,1.80
2019-02-10T06:51:18.897Z,2.00
2019-02-10T06:53:58.931Z,2.00
2019-02-10T06:56:38.386Z,1.50
2019-02-10T06:59:40.603Z,1.90
2019-02-10T07:02:39.921Z,1.80
2019-02-10T07:11:31.057Z,1.80
2019-02-10T07:14:10.962Z,1.50
2019-02-10T07:16:51.262Z,1.73
2019-02-10T07:19:31.171Z,1.67
2019-02-10T07:22:11.290Z,1.70
2019-02-10T07:24:50.511Z,1.90
2019-02-10T07:27:30.618Z,1.63
2019-02-10T07:30:10.686Z,1.80
2019-02-10T07:32:50.698Z,1.77
2019-02-10T07:35:30.999Z,1.87
2019-02-10T07:38:10.957Z,1.73
2019-02-10T07:40:50.784Z,1.70
2019-02-10T07:43:57.405Z,1.87
2019-02-10T07:46:44.154Z,1.80
2019-02-10T07:49:50.219Z,1.80
2019-02-10T07:52:43.490Z,1.80
2019-02-10T07:55:49.810Z,1.80
2019-02-10T07:58:55.866Z,1.90
2019-02-10T08:02:01.923Z,1.50
2019-02-10T08:04:48.564Z,1.67
2019-02-10T08:07:54.606Z,1.70
2019-02-10T08:11:00.675Z,1.60
2019-02-10T08:13:52.298Z,1.60
2019-02-10T08:16:42.271Z,9.57
2019-02-10T08:19:48.327Z,2.57
2019-02-10T08:22:54.387Z,1.93
2019-02-10T08:25:34.445Z,10.13
2019-02-10T08:28:14.882Z,2.98
2019-02-10T08:30:54.599Z,1.60
2019-02-10T08:36:47.503Z,1.60
2019-02-10T08:39:27.537Z,2.27
2019-02-10T08:42:07.311Z,1.80
2019-02-10T08:44:46.824Z,1.70
2019-02-10T08:47:33.562Z,1.60
2019-02-10T08:50:07.664Z,1.40
2019-02-10T08:52:51.929Z,1.33
2019-02-10T08:55:30.132Z,2.00
2019-02-10T08:58:09.903Z,1.60
2019-02-10T09:00:36.768Z,1.60
2019-02-10T09:03:03.792Z,1.30
2019-02-10T09:05:50.385Z,1.53
2019-02-10T09:08:37.130Z,1.30
2019-02-10T09:11:23.553Z,1.27
2019-02-10T09:14:10.057Z,1.10
2019-02-10T09:16:56.513Z,1.30
2019-02-10T09:19:43.166Z,1.20
2019-02-10T09:22:29.621Z,1.10
2019-02-10T09:25:16.153Z,1.30
2019-02-10T09:27:56.336Z,1.10
2019-02-10T09:30:23.637Z,1.10
2019-02-10T09:33:10.177Z,1.07
2019-02-10T09:35:56.747Z,1.00
2019-02-10T09:38:43.511Z,1.00
2019-02-10T09:41:30.007Z,1.00
2019-02-10T09:44:16.530Z,1.07
2019-02-10T09:47:03.066Z,1.00
2019-02-10T09:49:49.538Z,1.10
2019-02-10T09:52:36.211Z,1.20
2019-02-10T09:55:22.765Z,1.27
2019-02-10T09:58:09.273Z,1.40
2019-02-10T10:00:55.925Z,1.50
2019-02-10T10:03:42.325Z,1.22
2019-02-10T10:06:28.941Z,2.50
2019-02-10T10:09:19.357Z,1.50
2019-02-10T10:12:04.080Z,1.30
2019-02-10T10:14:50.706Z,1.20
2019-02-10T10:17:37.469Z,1.50
2019-02-10T10:20:24.210Z,2.35
2019-02-10T10:23:10.885Z,1.40
2019-02-10T10:25:57.626Z,1.43
2019-02-10T10:28:44.277Z,2.00
2019-02-10T10:31:11.151Z,1.50
2019-02-10T10:33:57.649Z,1.52
2019-02-10T10:36:44.322Z,5.17
2019-02-10T10:39:30.889Z,4.80
2019-02-10T10:42:17.550Z,3.30
2019-02-10T10:45:04.078Z,8.85
2019-02-10T10:47:50.669Z,2.50
2019-02-10T10:50:37.575Z,1.75
2019-02-10T10:53:24.218Z,1.47
2019-02-10T10:56:10.988Z,1.55
2019-02-10T10:58:57.523Z,1.22
2019-02-10T11:01:44.459Z,1.52
2019-02-10T11:04:31.050Z,1.20
2019-02-10T11:07:17.559Z,1.62
2019-02-10T11:10:04.355Z,1.20
2019-02-10T11:12:50.956Z,2.15
2019-02-10T11:15:37.482Z,1.50
2019-02-10T11:18:04.883Z,2.87
2019-02-10T11:20:51.446Z,1.60
2019-02-10T11:23:37.998Z,1.20
2019-02-10T11:26:18.412Z,1.20
2019-02-10T11:28:58.164Z,1.25
2019-02-10T11:31:38.563Z,1.37
2019-02-10T11:34:18.419Z,1.30
2019-02-10T11:36:58.266Z,1.90
2019-02-10T11:39:43.564Z,2.83
2019-02-10T11:42:19.844Z,1.50
2019-02-10T11:44:59.799Z,2.10
2019-02-10T11:47:39.839Z,1.40
2019-02-10T11:50:19.994Z,1.70
2019-02-10T11:53:00.050Z,2.12
2019-02-10T11:55:40.202Z,3.40
2019-02-10T11:58:20.380Z,3.05
2019-02-10T12:03:58.658Z,1.10
2019-02-10T12:27:33.478Z,1.30
2019-02-10T12:30:15.500Z,1.20
2019-02-10T12:32:55.917Z,1.25
2019-02-10T12:38:37.161Z,1.27
2019-02-10T12:41:04.088Z,1.67
2019-02-10T12:43:50.630Z,1.57
2019-02-10T12:46:37.347Z,1.20
2019-02-10T12:49:23.913Z,1.20
2019-02-10T12:52:10.527Z,1.20
2019-02-10T12:54:57.054Z,1.30
2019-02-10T12:57:43.594Z,1.10
2019-02-10T13:00:30.489Z,1.27
2019-02-10T13:03:17.007Z,1.70
2019-02-10T13:06:03.868Z,1.75
2019-02-10T13:08:50.398Z,1.92
2019-02-10T13:11:37.161Z,1.57
2019-02-10T13:14:23.691Z,1.82
2019-02-10T13:17:10.245Z,1.60
2019-02-10T13:19:58.386Z,1.72
2019-02-10T13:22:45.325Z,1.72
2019-02-10T13:25:31.974Z,1.35
2019-02-10T13:37:10.503Z,1.52
2019-02-10T13:39:48.128Z,1.40
2019-02-10T14:03:10.766Z,1.40
2019-02-10T14:05:57.288Z,2.33
2019-02-10T14:08:44.033Z,1.90
2019-02-10T14:11:30.675Z,1.37
2019-02-10T14:14:17.241Z,1.40
2019-02-10T14:17:03.807Z,1.45
2019-02-10T14:19:50.224Z,1.60
2019-02-10T14:22:36.629Z,1.50
2019-02-10T14:25:23.090Z,1.37
2019-02-10T14:28:03.384Z,1.50
2019-02-10T14:30:43.166Z,2.47
2019-02-10T14:33:23.332Z,1.87
2019-02-10T14:36:03.518Z,2.02
2019-02-10T14:38:36.319Z,1.62
2019-02-10T14:41:19.569Z,1.60
2019-02-10T14:44:06.257Z,1.72
2019-02-10T14:46:52.770Z,1.40
2019-02-10T14:49:39.289Z,1.25
2019-02-10T14:52:25.809Z,1.75
2019-02-10T14:55:12.841Z,1.65
2019-02-10T14:57:59.750Z,1.67
2019-02-10T15:00:46.542Z,1.40
2019-02-10T15:03:33.188Z,1.50
2019-02-10T15:06:20.283Z,1.52
2019-02-10T15:09:08.886Z,1.80
2019-02-10T15:11:55.409Z,2.00
2019-02-10T15:14:41.826Z,1.60
2019-02-10T15:17:29.804Z,3.23
2019-02-10T15:20:16.564Z,3.53
2019-02-10T15:23:03.471Z,3.35
2019-02-10T15:25:50.069Z,7.07
2019-02-10T15:28:30.147Z,5.60
2019-02-10T15:31:10.174Z,4.40
2019-02-10T15:33:50.251Z,10.60
2019-02-10T15:36:30.433Z,16.62
2019-02-10T15:39:11.043Z,5.03
2019-02-10T15:41:50.790Z,9.17
2019-02-10T15:44:30.455Z,2.70
2019-02-10T15:47:10.790Z,4.95
2019-02-10T15:49:50.746Z,7.05
2019-02-10T15:52:30.875Z,3.80
2019-02-10T15:55:10.988Z,5.42
2019-02-10T15:57:51.159Z,2.57
2019-02-10T16:00:30.932Z,2.47
2019-02-10T16:03:11.043Z,7.10
2019-02-10T16:05:50.995Z,4.10
2019-02-10T16:08:31.235Z,6.70
2019-02-10T16:11:11.080Z,13.07
2019-02-10T16:13:51.163Z,3.42
2019-02-10T16:16:31.430Z,2.00
2019-02-10T16:19:11.402Z,1.90
2019-02-10T16:21:51.444Z,1.93
2019-02-10T16:24:31.619Z,1.75
2019-02-10T16:27:11.754Z,1.40
2019-02-10T16:29:51.373Z,2.00
2019-02-10T16:32:18.930Z,1.87
2019-02-10T16:34:45.821Z,1.30
2019-02-10T16:37:12.860Z,1.90
2019-02-10T16:39:59.529Z,1.50
2019-02-10T16:42:26.869Z,1.60
2019-02-10T16:45:13.678Z,1.77
2019-02-10T16:48:00.199Z,1.80
2019-02-10T16:50:46.894Z,2.10
2019-02-10T16:53:33.356Z,2.50
2019-02-10T16:56:20.136Z,2.00
2019-02-10T16:59:07.083Z,1.50
2019-02-10T17:01:53.497Z,1.23
2019-02-10T17:04:40.138Z,1.33
2019-02-10T17:07:26.671Z,1.03
2019-02-10T17:10:13.398Z,0.80
2019-02-10T17:13:00.274Z,0.50
2019-02-10T17:15:46.740Z,1.00
2019-02-10T17:18:33.519Z,0.60
2019-02-10T17:21:20.262Z,0.60
2019-02-10T17:24:07.927Z,0.40
2019-02-10T17:26:48.001Z,0.47
2019-02-10T17:29:14.847Z,0.40
2019-02-10T17:32:01.351Z,0.40
2019-02-10T17:34:47.929Z,0.37
2019-02-10T17:37:34.373Z,0.60
2019-02-10T17:40:23.046Z,0.40
2019-02-10T17:43:09.467Z,0.43
2019-02-10T17:45:55.922Z,0.60
2019-02-10T17:48:42.516Z,0.50
2019-02-10T17:51:29.115Z,0.60
2019-02-10T17:54:15.507Z,0.73
2019-02-10T17:57:02.510Z,3.47
2019-02-10T17:59:48.927Z,2.80
2019-02-10T18:02:35.578Z,1.10
2019-02-10T18:05:21.999Z,2.13
2019-02-10T18:08:08.809Z,0.70
2019-02-10T18:10:55.331Z,0.80
2019-02-10T18:13:42.075Z,0.50
2019-02-10T18:16:48.116Z,0.43
2019-02-10T18:19:54.174Z,0.50
2019-02-10T18:22:50.729Z,0.60
2019-02-10T18:25:56.783Z,0.40
2019-02-10T18:28:52.993Z,0.60
2019-02-10T18:31:55.507Z,0.53
2019-02-10T18:34:42.786Z,0.63
2019-02-10T18:37:34.954Z,0.40
2019-02-10T18:40:24.497Z,0.33
2019-02-10T18:43:24.121Z,0.60
2019-02-10T18:46:23.092Z,0.50
2019-02-10T18:49:22.395Z,0.43
2019-02-10T18:52:13.863Z,0.30
2019-02-10T18:55:19.685Z,0.50
2019-02-10T18:58:18.807Z,0.40
2019-02-10T19:01:23.964Z,0.60
2019-02-10T19:04:23.262Z,0.50
2019-02-10T19:07:22.280Z,0.70
2019-02-10T19:10:21.751Z,0.70
2019-02-10T19:13:23.747Z,0.60
2019-02-10T19:16:28.741Z,1.70
2019-02-10T19:19:22.253Z,1.10
2019-02-10T19:22:21.213Z,0.90
2019-02-10T19:25:20.746Z,0.53
2019-02-10T19:28:18.606Z,0.50
2019-02-10T19:31:17.595Z,0.40
2019-02-10T19:34:17.236Z,0.20
2019-02-10T19:37:16.380Z,0.27
2019-02-10T19:39:50.639Z,0.47
2019-02-10T19:42:57.036Z,0.60
2019-02-10T19:46:03.118Z,0.27
2019-02-10T19:49:09.514Z,0.70
2019-02-10T19:52:15.932Z,1.10
2019-02-10T19:55:22.177Z,1.30
2019-02-10T19:58:17.691Z,0.80
2019-02-10T20:01:16.780Z,1.70
2019-02-10T20:04:10.263Z,4.60
2019-02-10T20:07:16.586Z,6.90
2019-02-10T20:10:03.507Z,7.23
2019-02-10T20:13:09.575Z,4.57
2019-02-10T20:16:15.672Z,2.23
2019-02-10T20:19:22.354Z,0.80
2019-02-10T20:22:18.057Z,0.50
2019-02-10T20:25:24.555Z,1.30
2019-02-10T20:31:19.386Z,1.23
2019-02-10T20:34:10.043Z,2.37
2019-02-10T20:37:09.484Z,1.73
2019-02-10T20:40:08.544Z,1.33
2019-02-10T20:43:08.051Z,1.03
2019-02-10T20:48:37.858Z,1.23
2019-02-10T20:51:37.241Z,0.80
2019-02-10T20:54:29.914Z,0.57
2019-02-10T20:57:30.071Z,0.60
2019-02-10T21:03:31.518Z,0.60
2019-02-10T21:06:31.178Z,0.50
2019-02-10T21:09:18.175Z,0.50
2019-02-10T21:12:20.683Z,0.60
2019-02-10T21:18:17.695Z,0.77
2019-02-10T21:21:16.961Z,0.70
2019-02-10T21:24:16.461Z,0.50
2019-02-10T21:27:07.818Z,0.60
2019-02-10T21:33:06.356Z,0.70
2019-02-10T21:39:10.558Z,0.37
2019-02-10T21:41:59.074Z,1.00
2019-02-10T21:44:58.194Z,0.70
2019-02-10T21:48:06.458Z,0.40
2019-02-10T21:50:46.008Z,0.37
2019-02-10T21:53:25.994Z,0.40
2019-02-10T21:55:52.774Z,0.53
2019-02-10T21:58:39.440Z,0.53
2019-02-10T22:01:26.303Z,0.73
2019-02-10T22:04:12.736Z,0.80
2019-02-10T22:06:59.250Z,0.73
2019-02-10T22:09:45.669Z,0.67
2019-02-10T22:12:37.027Z,0.50
2019-02-10T22:15:20.687Z,0.47
2019-02-10T22:18:07.366Z,0.67
2019-02-10T22:20:54.079Z,0.40
2019-02-10T22:23:40.870Z,0.50
2019-02-10T22:26:27.421Z,0.50
2019-02-10T22:32:19.773Z,0.30
2019-02-10T22:34:59.657Z,0.40
2019-02-10T22:37:39.298Z,0.30
2019-02-10T22:40:06.934Z,0.20
2019-02-10T22:42:53.528Z,0.20
2019-02-10T22:45:40.235Z,0.47
2019-02-10T22:48:27.040Z,0.30
2019-02-10T22:51:14.059Z,0.20
2019-02-10T22:54:00.723Z,0.40
2019-02-10T22:56:47.444Z,0.40
2019-02-10T22:59:34.096Z,0.60
2019-02-10T23:02:20.905Z,1.30
2019-02-10T23:05:07.434Z,0.70
2019-02-10T23:07:54.195Z,0.60
2019-02-10T23:10:41.005Z,0.60
2019-02-10T23:13:27.963Z,0.40
2019-02-10T23:16:14.716Z,0.40
2019-02-10T23:19:01.389Z,0.20
2019-02-10T23:21:47.812Z,0.40
2019-02-10T23:24:34.204Z,0.30
2019-02-10T23:27:20.609Z,0.50
2019-02-10T23:29:59.827Z,0.43
2019-02-10T23:32:40.278Z,0.60
2019-02-10T23:35:19.825Z,0.50
2019-02-10T23:38:00.096Z,0.40
2019-02-10T23:40:39.964Z,0.47
2019-02-10T23:43:19.966Z,0.50
2019-02-10T23:45:59.804Z,0.40
2019-02-10T23:48:39.899Z,0.40
2019-02-10T23:51:19.400Z,0.40
2019-02-10T23:53:59.049Z,0.50
2019-02-10T23:56:46.939Z,0.57
2019-02-10T23:59:21.322Z,0.40
